createdAt,value
2018-12-14T00:00:28.842Z,1.80
2018-12-14T00:02:56.674Z,1.76
2018-12-14T00:05:24.212Z,1.72
2018-12-14T00:07:51.741Z,1.65
2018-12-14T00:10:19.552Z,1.60
2018-12-14T00:12:47.110Z,1.56
2018-12-14T00:15:14.626Z,1.50
2018-12-14T00:17:42.185Z,1.41
2018-12-14T00:20:09.740Z,1.37
2018-12-14T00:22:37.282Z,1.40
2018-12-14T00:25:05.305Z,1.43
2018-12-14T00:27:32.956Z,1.36
2018-12-14T00:30:00.704Z,1.35
2018-12-14T00:32:28.519Z,1.36
2018-12-14T00:34:56.670Z,1.34
2018-12-14T00:37:24.181Z,1.38
2018-12-14T00:39:52.033Z,1.38
2018-12-14T00:42:19.547Z,1.35
2018-12-14T00:44:47.080Z,1.38
2018-12-14T00:47:14.924Z,1.31
2018-12-14T00:49:42.557Z,1.35
2018-12-14T00:52:10.071Z,1.35
2018-12-14T00:54:37.600Z,1.35
2018-12-14T00:57:05.140Z,1.38
2018-12-14T00:59:32.937Z,1.31
2018-12-14T01:02:00.461Z,1.38
2018-12-14T01:04:28.000Z,1.26
2018-12-14T01:06:55.811Z,1.33
2018-12-14T01:09:23.354Z,1.42
2018-12-14T01:11:50.876Z,1.47
2018-12-14T01:14:18.606Z,1.47
2018-12-14T01:16:46.123Z,1.29
2018-12-14T01:19:13.701Z,1.27
2018-12-14T01:21:41.241Z,1.23
2018-12-14T01:24:08.754Z,1.28
2018-12-14T01:26:36.263Z,1.18
2018-12-14T01:29:04.057Z,1.01
2018-12-14T01:31:31.574Z,1.08
2018-12-14T01:33:59.096Z,1.14
2018-12-14T01:36:26.950Z,1.24
2018-12-14T01:38:54.476Z,1.21
2018-12-14T01:41:21.982Z,1.27
2018-12-14T01:43:49.853Z,1.26
2018-12-14T01:46:17.369Z,1.10
2018-12-14T01:48:44.898Z,1.22
2018-12-14T01:51:12.722Z,1.26
2018-12-14T01:53:40.274Z,1.18
2018-12-14T01:56:07.881Z,1.10
2018-12-14T01:58:35.586Z,1.03
2018-12-14T02:01:03.104Z,0.95
2018-12-14T02:03:30.621Z,0.88
2018-12-14T02:05:58.222Z,0.83
2018-12-14T02:08:25.734Z,0.87
2018-12-14T02:10:53.248Z,0.90
2018-12-14T02:13:20.787Z,0.87
2018-12-14T02:15:48.319Z,0.86
2018-12-14T02:18:15.823Z,0.82
2018-12-14T02:20:43.362Z,0.81
2018-12-14T02:23:10.879Z,0.80
2018-12-14T02:25:38.402Z,0.80
2018-12-14T02:28:06.175Z,0.77
2018-12-14T02:30:43.377Z,0.82
2018-12-14T02:33:10.947Z,0.84
2018-12-14T02:35:38.484Z,0.85
2018-12-14T02:38:06.007Z,0.86
2018-12-14T02:40:33.873Z,0.86
2018-12-14T02:43:01.523Z,0.86
2018-12-14T02:45:29.063Z,0.80
2018-12-14T02:47:56.672Z,0.72
2018-12-14T02:50:24.205Z,0.81
2018-12-14T02:52:51.706Z,0.84
2018-12-14T02:55:19.530Z,0.81
2018-12-14T02:57:47.041Z,0.84
2018-12-14T03:00:14.573Z,0.63
2018-12-14T03:02:42.457Z,0.63
2018-12-14T03:05:09.985Z,0.63
2018-12-14T03:07:37.516Z,0.70
2018-12-14T03:10:06.241Z,0.76
2018-12-14T03:12:33.763Z,0.91
2018-12-14T03:15:01.416Z,1.05
2018-12-14T03:17:29.425Z,1.07
2018-12-14T03:19:57.056Z,1.04
2018-12-14T03:22:25.777Z,1.02
2018-12-14T03:24:53.342Z,0.96
2018-12-14T03:27:20.994Z,1.06
2018-12-14T03:29:48.538Z,1.00
2018-12-14T03:32:16.107Z,0.78
2018-12-14T03:34:43.676Z,0.74
2018-12-14T03:37:11.190Z,0.81
2018-12-14T03:39:39.014Z,0.89
2018-12-14T03:42:07.175Z,0.87
2018-12-14T03:44:34.695Z,0.82
2018-12-14T03:47:02.254Z,0.83
2018-12-14T03:49:29.766Z,0.81
2018-12-14T03:51:57.267Z,0.70
2018-12-14T03:54:25.103Z,0.64
2018-12-14T03:56:52.620Z,0.70
2018-12-14T03:59:20.135Z,0.57
2018-12-14T04:01:47.694Z,0.58
2018-12-14T04:04:15.326Z,0.52
2018-12-14T04:06:42.908Z,0.40
2018-12-14T04:09:10.464Z,0.24
2018-12-14T04:11:37.979Z,0.19
2018-12-14T04:14:05.528Z,0.07
2018-12-14T04:16:33.372Z,0.06
2018-12-14T04:19:00.924Z,-0.15
2018-12-14T04:21:28.950Z,-0.23
2018-12-14T04:23:56.839Z,-0.26
2018-12-14T04:26:24.399Z,-0.30
2018-12-14T04:28:52.553Z,-0.40
2018-12-14T04:31:20.743Z,-0.51
2018-12-14T04:33:48.395Z,-0.45
2018-12-14T04:36:15.950Z,-0.46
2018-12-14T04:38:43.757Z,-0.56
2018-12-14T04:41:11.276Z,-0.68
2018-12-14T04:43:38.801Z,-0.68
2018-12-14T04:46:06.359Z,-0.71
2018-12-14T04:48:33.880Z,-0.75
2018-12-14T04:51:01.418Z,-0.75
2018-12-14T04:53:29.327Z,-0.74
2018-12-14T04:55:56.886Z,-0.70
2018-12-14T04:58:24.535Z,-0.68
2018-12-14T05:00:52.148Z,-0.66
2018-12-14T05:03:19.701Z,-0.65
2018-12-14T05:05:47.252Z,-0.65
2018-12-14T05:08:15.037Z,-0.70
2018-12-14T05:10:42.639Z,-0.72
2018-12-14T05:13:10.306Z,-0.69
2018-12-14T05:15:38.640Z,-0.72
2018-12-14T05:18:11.542Z,-0.74
2018-12-14T05:20:39.056Z,-0.77
2018-12-14T05:23:06.814Z,-0.72
2018-12-14T05:25:35.947Z,-0.64
2018-12-14T05:28:03.522Z,-0.64
2018-12-14T05:30:31.111Z,-0.71
2018-12-14T05:32:58.673Z,-0.74
2018-12-14T05:35:26.748Z,-0.72
2018-12-14T05:37:54.478Z,-0.81
2018-12-14T05:40:22.033Z,-0.68
2018-12-14T05:42:49.639Z,-0.74
2018-12-14T05:45:17.526Z,-0.74
2018-12-14T05:47:45.059Z,-0.72
2018-12-14T05:50:13.150Z,-0.74
2018-12-14T05:52:40.948Z,-0.72
2018-12-14T05:55:08.540Z,-0.69
2018-12-14T05:57:36.132Z,-0.72
2018-12-14T06:00:05.257Z,-0.67
2018-12-14T06:02:34.526Z,-0.67
2018-12-14T06:05:02.059Z,-0.61
2018-12-14T06:07:29.640Z,-0.65
2018-12-14T06:09:57.190Z,-0.58
2018-12-14T06:12:24.869Z,-0.67
2018-12-14T06:14:52.767Z,-0.66
2018-12-14T06:17:20.787Z,-0.68
2018-12-14T06:19:48.350Z,-0.65
2018-12-14T06:22:15.895Z,-0.64
2018-12-14T06:24:43.442Z,-0.60
2018-12-14T06:27:11.054Z,-0.59
2018-12-14T06:29:38.626Z,-0.49
2018-12-14T06:32:06.609Z,-0.60
2018-12-14T06:34:34.120Z,-0.55
2018-12-14T06:37:01.689Z,-0.54
2018-12-14T06:39:29.576Z,-0.65
2018-12-14T06:41:57.308Z,-0.56
2018-12-14T06:44:24.841Z,-0.60
2018-12-14T06:46:52.473Z,-0.60
2018-12-14T06:49:19.999Z,-0.55
2018-12-14T06:51:47.518Z,-0.49
2018-12-14T06:54:15.378Z,-0.46
2018-12-14T06:56:43.011Z,-0.51
2018-12-14T06:59:10.531Z,-0.44
2018-12-14T07:01:38.250Z,-0.44
2018-12-14T07:04:05.767Z,-0.33
2018-12-14T07:06:33.318Z,-0.45
2018-12-14T07:09:01.148Z,-0.43
2018-12-14T07:11:28.695Z,-0.27
2018-12-14T07:13:56.225Z,-0.35
2018-12-14T07:16:23.744Z,-0.40
2018-12-14T07:18:51.485Z,-0.30
2018-12-14T07:21:19.250Z,-0.39
2018-12-14T07:23:46.774Z,-0.35
2018-12-14T07:26:14.292Z,-0.44
2018-12-14T07:28:41.912Z,-0.47
2018-12-14T07:31:09.437Z,-0.50
2018-12-14T07:33:36.966Z,-0.43
2018-12-14T07:36:04.728Z,-0.42
2018-12-14T07:38:32.371Z,-0.47
2018-12-14T07:40:59.897Z,-0.77
2018-12-14T07:43:28.407Z,-0.58
2018-12-14T07:45:56.241Z,-0.55
2018-12-14T07:48:23.753Z,-0.50
2018-12-14T07:50:51.621Z,-0.51
2018-12-14T07:53:19.165Z,-0.51
2018-12-14T07:55:46.682Z,-0.45
2018-12-14T07:58:14.236Z,-0.46
2018-12-14T08:00:41.845Z,-0.48
2018-12-14T08:03:09.414Z,-0.35
2018-12-14T08:05:37.194Z,-0.40
2018-12-14T08:08:04.793Z,-0.33
2018-12-14T08:10:32.364Z,-0.36
2018-12-14T08:13:00.475Z,-0.28
2018-12-14T08:15:28.221Z,-0.20
2018-12-14T08:17:56.998Z,-0.21
2018-12-14T08:20:24.746Z,-0.29
2018-12-14T08:22:53.188Z,-0.21
2018-12-14T08:25:20.732Z,-0.33
2018-12-14T08:27:48.525Z,-0.16
2018-12-14T08:30:16.067Z,-0.07
2018-12-14T08:32:43.612Z,-0.07
2018-12-14T08:35:11.544Z,-0.01
2018-12-14T08:37:39.059Z,0.11
2018-12-14T08:40:07.317Z,0.09
2018-12-14T08:42:36.151Z,0.14
2018-12-14T08:45:04.507Z,0.26
2018-12-14T08:47:32.057Z,0.24
2018-12-14T08:50:00.023Z,0.34
2018-12-14T08:52:27.531Z,0.27
2018-12-14T08:54:55.083Z,0.45
2018-12-14T08:57:22.858Z,0.57
2018-12-14T08:59:50.377Z,0.73
2018-12-14T09:02:17.936Z,0.66
2018-12-14T09:04:45.812Z,0.57
2018-12-14T09:07:13.351Z,0.63
2018-12-14T09:09:40.874Z,0.70
2018-12-14T09:12:08.613Z,0.84
2018-12-14T09:14:36.132Z,0.84
2018-12-14T09:17:03.700Z,1.07
2018-12-14T09:19:31.468Z,1.25
2018-12-14T09:21:58.988Z,1.32
2018-12-14T09:24:26.523Z,1.02
2018-12-14T09:26:54.148Z,0.95
2018-12-14T09:29:23.338Z,1.08
2018-12-14T09:31:51.143Z,1.18
2018-12-14T09:34:18.690Z,1.13
2018-12-14T09:36:46.222Z,1.24
2018-12-14T09:39:13.801Z,1.05
2018-12-14T09:41:41.360Z,1.13
2018-12-14T09:44:08.868Z,1.02
2018-12-14T09:46:37.122Z,0.88
2018-12-14T09:49:05.191Z,0.86
2018-12-14T09:51:32.816Z,0.74
2018-12-14T09:54:00.347Z,0.71
2018-12-14T09:56:28.163Z,0.65
2018-12-14T09:58:55.694Z,0.58
2018-12-14T10:01:23.245Z,0.48
2018-12-14T10:03:51.023Z,0.61
2018-12-14T10:06:18.922Z,0.58
2018-12-14T10:08:46.471Z,0.67
2018-12-14T10:11:14.480Z,0.61
2018-12-14T10:13:42.312Z,0.58
2018-12-14T10:16:10.076Z,0.62
2018-12-14T10:18:38.510Z,0.76
2018-12-14T10:21:06.123Z,0.69
2018-12-14T10:23:33.654Z,0.71
2018-12-14T10:26:01.647Z,0.73
2018-12-14T10:28:29.171Z,0.79
2018-12-14T10:30:56.743Z,0.94
2018-12-14T10:33:24.881Z,0.77
2018-12-14T10:35:52.506Z,0.77
2018-12-14T10:38:20.036Z,0.91
2018-12-14T10:40:47.850Z,0.98
2018-12-14T10:43:15.368Z,0.95
2018-12-14T10:45:43.240Z,1.05
2018-12-14T10:48:10.800Z,1.01
2018-12-14T10:50:39.720Z,0.96
2018-12-14T10:53:09.744Z,1.10
2018-12-14T10:55:37.290Z,0.96
2018-12-14T10:58:04.856Z,0.96
2018-12-14T11:00:38.358Z,0.98
2018-12-14T11:03:05.879Z,1.05
2018-12-14T11:05:33.483Z,0.95
2018-12-14T11:08:01.347Z,0.86
2018-12-14T11:10:28.950Z,1.06
2018-12-14T11:12:56.550Z,0.90
2018-12-14T11:15:24.095Z,1.27
2018-12-14T11:17:51.614Z,1.16
2018-12-14T11:20:19.130Z,1.33
2018-12-14T11:22:46.691Z,1.25
2018-12-14T11:25:14.258Z,1.24
2018-12-14T11:27:41.837Z,1.17
2018-12-14T11:30:09.839Z,1.06
2018-12-14T11:32:38.216Z,0.98
2018-12-14T11:35:05.745Z,1.01
2018-12-14T11:37:33.587Z,1.22
2018-12-14T11:40:01.173Z,1.15
2018-12-14T11:42:28.739Z,1.22
2018-12-14T11:44:56.615Z,1.27
2018-12-14T11:47:24.123Z,1.18
2018-12-14T11:49:51.653Z,1.23
2018-12-14T11:52:19.595Z,1.08
2018-12-14T11:54:47.121Z,1.14
2018-12-14T11:57:14.699Z,1.10
2018-12-14T11:59:42.585Z,1.16
2018-12-14T12:02:10.101Z,1.12
2018-12-14T12:04:37.611Z,1.19
2018-12-14T12:07:05.406Z,1.16
2018-12-14T12:09:33.504Z,1.19
2018-12-14T12:12:01.203Z,1.31
2018-12-14T12:14:28.759Z,1.49
2018-12-14T12:16:56.284Z,1.49
2018-12-14T12:19:23.803Z,1.36
2018-12-14T12:21:51.554Z,1.34
2018-12-14T12:24:19.080Z,1.42
2018-12-14T12:26:46.591Z,1.39
2018-12-14T12:29:14.152Z,1.35
2018-12-14T12:31:41.691Z,1.44
2018-12-14T12:34:09.203Z,1.35
2018-12-14T12:36:37.128Z,1.55
2018-12-14T12:39:05.870Z,1.60
2018-12-14T12:41:33.386Z,1.63
2018-12-14T12:44:01.235Z,1.54
2018-12-14T12:46:28.801Z,1.66
2018-12-14T12:48:56.513Z,1.72
2018-12-14T12:51:24.524Z,1.66
2018-12-14T12:53:52.177Z,1.64
2018-12-14T12:56:20.012Z,1.73
2018-12-14T12:58:47.843Z,1.82
2018-12-14T13:01:16.415Z,1.80
2018-12-14T13:03:43.926Z,1.85
2018-12-14T13:06:11.772Z,1.80
2018-12-14T13:08:39.746Z,1.58
2018-12-14T13:11:07.258Z,1.64
2018-12-14T13:13:35.152Z,1.69
2018-12-14T13:16:02.805Z,1.57
2018-12-14T13:18:30.379Z,1.57
2018-12-14T13:20:58.089Z,1.48
2018-12-14T13:23:25.693Z,1.47
2018-12-14T13:25:54.138Z,1.52
2018-12-14T13:28:22.060Z,1.52
2018-12-14T13:30:49.971Z,1.50
2018-12-14T13:33:18.019Z,1.56
2018-12-14T13:35:45.715Z,1.43
2018-12-14T13:38:13.271Z,1.52
2018-12-14T13:40:41.000Z,1.45
2018-12-14T13:43:09.481Z,1.42
2018-12-14T13:45:37.013Z,1.38
2018-12-14T13:48:04.549Z,1.50
2018-12-14T13:50:33.274Z,1.42
2018-12-14T13:53:00.837Z,1.49
2018-12-14T13:55:28.387Z,1.43
2018-12-14T13:57:56.324Z,1.44
2018-12-14T14:00:23.981Z,1.53
2018-12-14T14:02:51.528Z,1.52
2018-12-14T14:05:19.381Z,1.50
2018-12-14T14:07:47.176Z,1.57
2018-12-14T14:10:14.713Z,1.54
2018-12-14T14:12:42.269Z,1.41
2018-12-14T14:15:10.131Z,1.35
2018-12-14T14:17:37.665Z,1.44
2018-12-14T14:20:07.293Z,1.56
2018-12-14T14:22:35.009Z,1.69
2018-12-14T14:25:02.581Z,1.57
2018-12-14T14:27:30.372Z,1.47
2018-12-14T14:29:58.907Z,1.60
2018-12-14T14:32:26.472Z,1.52
2018-12-14T14:34:54.144Z,1.63
2018-12-14T14:37:21.734Z,1.71
2018-12-14T14:39:49.265Z,1.59
2018-12-14T14:42:16.857Z,1.57
2018-12-14T14:44:44.639Z,1.54
2018-12-14T14:47:12.192Z,1.57
2018-12-14T14:49:40.111Z,1.55
2018-12-14T14:52:07.632Z,1.61
2018-12-14T14:54:39.823Z,1.57
2018-12-14T14:57:04.987Z,1.54
2018-12-14T14:59:32.544Z,1.59
2018-12-14T15:02:00.101Z,1.54
2018-12-14T15:04:28.076Z,1.52
2018-12-14T15:06:55.632Z,1.54
2018-12-14T15:09:23.204Z,1.56
2018-12-14T15:11:51.083Z,1.58
2018-12-14T15:14:19.753Z,1.61
2018-12-14T15:16:47.288Z,1.66
2018-12-14T15:19:15.102Z,1.72
2018-12-14T15:21:42.618Z,1.68
2018-12-14T15:24:10.230Z,1.69
2018-12-14T15:26:38.022Z,1.65
2018-12-14T15:29:05.549Z,1.45
2018-12-14T15:31:33.100Z,1.68
2018-12-14T15:34:01.056Z,1.64
2018-12-14T15:36:28.612Z,1.64
2018-12-14T15:38:56.624Z,1.68
2018-12-14T15:41:24.154Z,1.61
2018-12-14T15:43:51.700Z,1.60
2018-12-14T15:46:19.518Z,1.55
2018-12-14T15:48:47.040Z,1.58
2018-12-14T15:51:14.604Z,1.49
2018-12-14T15:53:42.457Z,1.57
2018-12-14T15:56:10.366Z,1.55
2018-12-14T15:58:37.998Z,1.59
2018-12-14T16:01:05.898Z,1.60
2018-12-14T16:03:33.425Z,1.71
2018-12-14T16:06:01.230Z,1.74
2018-12-14T16:08:28.780Z,1.70
2018-12-14T16:10:56.351Z,1.75
2018-12-14T16:13:24.632Z,1.60
2018-12-14T16:15:52.276Z,1.54
2018-12-14T16:18:19.984Z,1.57
2018-12-14T16:20:47.523Z,1.53
2018-12-14T16:23:15.144Z,1.56
2018-12-14T16:25:42.708Z,1.49
2018-12-14T16:28:10.223Z,1.45
2018-12-14T16:30:37.740Z,1.43
2018-12-14T16:33:05.491Z,1.38
2018-12-14T16:35:33.032Z,1.29
2018-12-14T16:38:00.629Z,1.32
2018-12-14T16:40:28.242Z,1.38
2018-12-14T16:42:55.830Z,1.41
2018-12-14T16:45:26.364Z,1.30
2018-12-14T16:47:53.248Z,1.18
2018-12-14T16:50:20.866Z,1.25
2018-12-14T16:52:48.535Z,1.21
2018-12-14T16:55:16.085Z,1.20
2018-12-14T16:57:43.658Z,1.18
2018-12-14T17:00:11.584Z,1.13
2018-12-14T17:02:39.098Z,1.13
2018-12-14T17:05:07.338Z,1.10
2018-12-14T17:07:35.018Z,1.05
2018-12-14T17:10:02.717Z,1.10
2018-12-14T17:12:30.538Z,1.05
2018-12-14T17:14:59.763Z,1.10
2018-12-14T17:17:28.092Z,0.96
2018-12-14T17:19:55.702Z,1.06
2018-12-14T17:22:23.251Z,1.13
2018-12-14T17:24:50.992Z,1.12
2018-12-14T17:27:18.528Z,1.10
2018-12-14T17:29:46.046Z,1.15
2018-12-14T17:32:13.578Z,1.20
2018-12-14T17:34:41.102Z,1.19
2018-12-14T17:37:08.681Z,1.21
2018-12-14T17:39:36.183Z,1.19
2018-12-14T17:42:03.744Z,1.26
2018-12-14T17:44:31.290Z,1.19
2018-12-14T17:46:58.872Z,1.24
2018-12-14T17:49:26.838Z,1.20
2018-12-14T17:51:54.539Z,1.30
2018-12-14T17:54:22.065Z,1.18
2018-12-14T17:56:49.605Z,1.21
2018-12-14T17:59:17.189Z,1.28
2018-12-14T18:01:45.082Z,1.29
2018-12-14T18:04:12.608Z,1.34
2018-12-14T18:06:40.130Z,1.30
2018-12-14T18:09:07.699Z,1.34
2018-12-14T18:11:35.295Z,1.29
2018-12-14T18:14:03.135Z,1.29
2018-12-14T18:16:30.880Z,1.34
2018-12-14T18:18:58.477Z,1.38
2018-12-14T18:21:26.061Z,1.37
2018-12-14T18:23:53.595Z,1.33
2018-12-14T18:26:21.173Z,1.37
2018-12-14T18:28:48.712Z,1.41
2018-12-14T18:31:16.343Z,1.44
2018-12-14T18:33:43.952Z,1.42
2018-12-14T18:36:11.514Z,1.49
2018-12-14T18:38:39.315Z,1.50
2018-12-14T18:41:06.844Z,1.58
2018-12-14T18:43:34.869Z,1.62
2018-12-14T18:46:02.870Z,1.60
2018-12-14T18:48:31.066Z,1.56
2018-12-14T18:50:59.019Z,1.57
2018-12-14T18:53:26.695Z,1.64
2018-12-14T18:55:54.252Z,1.63
2018-12-14T18:58:21.785Z,1.66
2018-12-14T19:00:49.314Z,1.73
2018-12-14T19:03:16.834Z,1.73
2018-12-14T19:05:44.621Z,1.69
2018-12-14T19:08:12.176Z,1.67
2018-12-14T19:10:39.723Z,1.72
2018-12-14T19:13:07.260Z,1.66
2018-12-14T19:15:34.801Z,1.66
2018-12-14T19:18:02.643Z,1.63
2018-12-14T19:20:30.232Z,1.66
2018-12-14T19:22:57.795Z,1.74
2018-12-14T19:25:25.329Z,1.70
2018-12-14T19:27:52.928Z,1.73
2018-12-14T19:30:20.833Z,1.68
2018-12-14T19:32:48.352Z,1.76
2018-12-14T19:35:15.879Z,1.78
2018-12-14T19:37:43.480Z,1.79
2018-12-14T19:40:11.029Z,1.78
2018-12-14T19:42:39.243Z,1.84
2018-12-14T19:45:08.346Z,1.89
2018-12-14T19:47:36.730Z,1.94
2018-12-14T19:50:07.250Z,1.97
2018-12-14T19:52:36.256Z,1.90
2018-12-14T19:55:05.788Z,1.93
2018-12-14T19:57:33.349Z,1.85
2018-12-14T20:00:00.951Z,1.83
2018-12-14T20:02:28.483Z,1.83
2018-12-14T20:04:56.020Z,1.82
2018-12-14T20:07:23.886Z,1.87
2018-12-14T20:09:51.424Z,1.82
2018-12-14T20:12:18.992Z,1.74
2018-12-14T20:14:46.515Z,1.70
2018-12-14T20:17:14.179Z,1.70
2018-12-14T20:19:42.003Z,1.79
2018-12-14T20:22:09.572Z,1.83
2018-12-14T20:24:37.112Z,1.86
2018-12-14T20:27:04.655Z,1.88
2018-12-14T20:29:32.168Z,1.93
2018-12-14T20:31:59.763Z,1.88
2018-12-14T20:34:27.342Z,1.91
2018-12-14T20:36:54.933Z,1.90
2018-12-14T20:39:22.483Z,1.92
2018-12-14T20:41:50.057Z,1.87
2018-12-14T20:44:18.089Z,1.93
2018-12-14T20:46:45.623Z,1.99
2018-12-14T20:49:13.418Z,2.01
2018-12-14T20:51:40.940Z,1.97
2018-12-14T20:54:08.452Z,1.86
2018-12-14T20:56:36.007Z,1.89
2018-12-14T20:59:03.554Z,1.83
2018-12-14T21:01:31.091Z,1.80
2018-12-14T21:03:58.643Z,1.74
2018-12-14T21:06:26.555Z,1.82
2018-12-14T21:08:54.080Z,1.93
2018-12-14T21:11:21.621Z,1.96
2018-12-14T21:13:49.172Z,1.99
2018-12-14T21:16:16.776Z,1.96
2018-12-14T21:18:47.730Z,1.95
2018-12-14T21:21:15.293Z,1.93
2018-12-14T21:23:42.819Z,1.89
2018-12-14T21:26:10.332Z,1.86
2018-12-14T21:28:37.981Z,1.86
2018-12-14T21:31:05.551Z,1.83
2018-12-14T21:33:33.090Z,1.80
2018-12-14T21:36:00.650Z,1.80
2018-12-14T21:38:28.190Z,1.82
2018-12-14T21:40:56.016Z,1.80
2018-12-14T21:43:23.733Z,1.81
2018-12-14T21:45:52.452Z,1.80
2018-12-14T21:48:20.068Z,1.79
2018-12-14T21:50:47.574Z,1.76
2018-12-14T21:53:15.453Z,1.76
2018-12-14T21:55:42.991Z,1.75
2018-12-14T21:58:10.858Z,1.77
2018-12-14T22:00:38.688Z,1.86
2018-12-14T22:03:06.228Z,1.82
2018-12-14T22:05:33.779Z,1.78
2018-12-14T22:08:01.371Z,1.67
2018-12-14T22:10:28.900Z,1.66
2018-12-14T22:12:56.643Z,1.59
2018-12-14T22:15:24.260Z,1.57
2018-12-14T22:17:51.787Z,1.65
2018-12-14T22:20:19.560Z,1.60
2018-12-14T22:22:47.079Z,1.62
2018-12-14T22:25:14.607Z,1.59
2018-12-14T22:27:42.115Z,1.65
2018-12-14T22:30:09.679Z,1.63
2018-12-14T22:32:37.526Z,1.60
2018-12-14T22:35:05.143Z,1.61
2018-12-14T22:37:32.686Z,1.63
2018-12-14T22:40:00.218Z,1.68
2018-12-14T22:42:27.756Z,1.61
2018-12-14T22:44:55.582Z,1.57
2018-12-14T22:47:23.118Z,1.55
2018-12-14T22:49:50.774Z,1.56
2018-12-14T22:52:18.323Z,1.55
2018-12-14T22:54:45.894Z,1.50
2018-12-14T22:57:13.497Z,1.58
2018-12-14T22:59:41.041Z,1.67
2018-12-14T23:02:08.600Z,1.64
2018-12-14T23:04:36.134Z,1.62
2018-12-14T23:07:03.690Z,1.60
2018-12-14T23:09:31.664Z,1.70
2018-12-14T23:11:59.249Z,1.76
2018-12-14T23:14:26.794Z,1.73
2018-12-14T23:16:54.322Z,1.73
2018-12-14T23:19:21.900Z,1.66
2018-12-14T23:21:49.691Z,1.69
2018-12-14T23:24:17.256Z,1.72
2018-12-14T23:26:44.795Z,1.77
2018-12-14T23:29:12.377Z,1.83
2018-12-14T23:31:39.971Z,1.93
2018-12-14T23:34:07.659Z,1.95
2018-12-14T23:36:35.197Z,1.95
2018-12-14T23:39:03.217Z,1.96
2018-12-14T23:41:30.753Z,1.90
2018-12-14T23:43:58.294Z,1.92
2018-12-14T23:46:26.128Z,1.86
2018-12-14T23:48:53.638Z,1.83
2018-12-14T23:51:21.167Z,1.88
2018-12-14T23:53:48.696Z,1.86
2018-12-14T23:56:16.226Z,1.88
2018-12-14T23:58:44.025Z,1.93
